Koerth, Texas
Current Conditions -  °F | °C
As of 9:55 AM on Thursday 27 Nov 2014 (Local Time) from K66R Reporting Station
Clear Clear  
Wind Chill: 55°   Ceiling: Unl
Heat Index: 55°   Visibility: 10mi
Dew Point: 34°   Wind: 10mph
Humidity: 45%   Direction: 60°ENE
Pressure: 30.51"   Gusts: NA
Location:  29.3984°N, 96.8256°W
Report Text: K66R 271555Z AUTO 06009KT 10SM CLR 13/01 A3051 RMK AO2 T01290011
Loading
Personal Weather Stations






























Interactive Weather Map New forecast layout! Learn more

10-Day Weather Forecast

Advertisements
Track Severe Weather on mobile